Evanston Uinta County Burns Field
KEVW : now visible

Airfield :











YOU CAN JOIN US ON...

 
LOGIN :

Register | Disclaimer

   EN    FR    IT 

 









Legend :    VFR   Marginal VFR   IFR   Intensive IFR   Very Intensive IFR
Visi :
Ceiling :
>= 8 km
>= 3000ft
5 to 8 km
1000 to 3000 ft
1500m to 5 km
500 to 1000 ft
800 to 1500m
200 to 500 ft
< 800m
< 200 ft
Symbols :   Thunderstorms  Fog  Heavy snow  Heavy precipitations  Wind > 20 kt






- Airport Elevation : 7143 ft


KEVW - Evanston Uinta County Burns Field

CURRENT METAR :
  • 071453Z AUTO 19003KT 10SM CLR 13/11 A3042 RMK AO2 SLP232 T01280106 51011 $

EXPIRED METARs :
  • 071405Z AUTO 20003KT 4SM BR FEW001 11/10 A3041 RMK AO2 T01110100 $
  • 071253Z AUTO 17004KT 10SM CLR 11/09 A3039 RMK AO2 SLP225 T01060089 $

TAF KEVW
Valid from the 07 at 12:00 until the 08 at 12:00 UTC


071131Z 0712/0812 17005KT P6SM FEW003
TEMPO 0712/0714 1/2SM FG VV001
FM071700 29011KT P6SM SKC
FM080200 17005KT P6SM SKC
KZLC FIR / North America



MET'MAP, your aeronautical weather chart ! - Copyright ORBIFLY December 2007 - Disclaimer

ORBIFLY MET'MAP TEAM :

Programming & Development : Alexandra Zaïnal
Original concept : Baudouin d'Aumeries
Technical & hardware support : Manuel Goepfert
Assistance : Marc-Olivier Méhu




SOURCES & CREDITS :

   NOAA       Earth
Advisory